logo
Search for airport 
image banner adimage banner adimage banner ad
image banner ad

CYNH - Hudsons Hope

Located in , Canada

ICAO - CYNH, IATA - YNH

Data provided by Airmate  

General information

Coordinates: N56°2'8" W121°58'33"
Elevation is 2220 feet MSL.
Magnetic variation is 19.1° East
View others Airports in British Columbia

Operational data

Special qualification required
Current time UTC:
Current local time:
Weather at : CYCQ - Chetwynd ( 44 km )
METAR: CYCQ 171500Z 24011KT 15SM FEW008 BKN100 OVC200 08/05 A2993 RMK CF1AC5CI3 CF TR SLP156
View NOTAMs / SUP AIP / TFR affecting this airport [VIEW]
Communications frequencies: [VIEW]

Runways:

RWY identifierQFULength (ft)Width (ft)SurfaceLDA (ft)
055200100ASPH
235200100ASPH

Airport contact information

Address: Canada

Satellite view of CYNH